sensor_id;sensor_type;location;lat;lon;timestamp;P1;durP1;ratioP1;P2;durP2;ratioP2
2686;SDS011;1353;51.386;7.028;2022-08-03T00:01:34;2.07;;;1.90;;
2686;SDS011;1353;51.386;7.028;2022-08-03T00:04:01;2.10;;;2.00;;
2686;SDS011;1353;51.386;7.028;2022-08-03T00:06:28;3.83;;;2.57;;
2686;SDS011;1353;51.386;7.028;2022-08-03T00:08:55;4.30;;;2.40;;
2686;SDS011;1353;51.386;7.028;2022-08-03T00:11:22;3.10;;;2.40;;
2686;SDS011;1353;51.386;7.028;2022-08-03T00:13:49;2.63;;;2.20;;
2686;SDS011;1353;51.386;7.028;2022-08-03T00:16:15;3.97;;;2.20;;
2686;SDS011;1353;51.386;7.028;2022-08-03T00:18:43;2.47;;;2.00;;
2686;SDS011;1353;51.386;7.028;2022-08-03T00:21:10;6.70;;;2.70;;
2686;SDS011;1353;51.386;7.028;2022-08-03T00:23:37;4.17;;;2.70;;
2686;SDS011;1353;51.386;7.028;2022-08-03T00:26:04;2.90;;;2.70;;
2686;SDS011;1353;51.386;7.028;2022-08-03T00:28:31;3.37;;;2.40;;
2686;SDS011;1353;51.386;7.028;2022-08-03T00:30:57;2.87;;;2.53;;
2686;SDS011;1353;51.386;7.028;2022-08-03T00:33:24;3.30;;;3.00;;
2686;SDS011;1353;51.386;7.028;2022-08-03T00:35:52;5.00;;;3.00;;
2686;SDS011;1353;51.386;7.028;2022-08-03T00:38:19;3.23;;;2.40;;
2686;SDS011;1353;51.386;7.028;2022-08-03T00:40:46;3.93;;;2.17;;
2686;SDS011;1353;51.386;7.028;2022-08-03T00:43:12;4.77;;;2.90;;
2686;SDS011;1353;51.386;7.028;2022-08-03T00:45:40;3.47;;;2.63;;
2686;SDS011;1353;51.386;7.028;2022-08-03T00:48:08;2.87;;;2.67;;
2686;SDS011;1353;51.386;7.028;2022-08-03T00:50:38;2.90;;;2.57;;
2686;SDS011;1353;51.386;7.028;2022-08-03T00:53:08;3.00;;;2.00;;
2686;SDS011;1353;51.386;7.028;2022-08-03T00:55:37;2.77;;;2.23;;
2686;SDS011;1353;51.386;7.028;2022-08-03T00:58:04;3.03;;;2.37;;
2686;SDS011;1353;51.386;7.028;2022-08-03T01:00:33;2.87;;;2.40;;
2686;SDS011;1353;51.386;7.028;2022-08-03T01:03:02;3.40;;;2.47;;
2686;SDS011;1353;51.386;7.028;2022-08-03T01:05:30;4.30;;;2.70;;
2686;SDS011;1353;51.386;7.028;2022-08-03T01:08:02;2.30;;;2.10;;
2686;SDS011;1353;51.386;7.028;2022-08-03T01:10:40;3.23;;;2.80;;
2686;SDS011;1353;51.386;7.028;2022-08-03T01:13:16;3.87;;;2.93;;
2686;SDS011;1353;51.386;7.028;2022-08-03T01:15:52;6.07;;;2.30;;
2686;SDS011;1353;51.386;7.028;2022-08-03T01:18:25;3.20;;;2.47;;
2686;SDS011;1353;51.386;7.028;2022-08-03T01:20:57;4.93;;;2.90;;
2686;SDS011;1353;51.386;7.028;2022-08-03T01:23:34;3.17;;;2.27;;
2686;SDS011;1353;51.386;7.028;2022-08-03T01:26:21;5.97;;;2.60;;
2686;SDS011;1353;51.386;7.028;2022-08-03T01:29:06;9.90;;;2.40;;
2686;SDS011;1353;51.386;7.028;2022-08-03T01:31:48;5.13;;;2.90;;
2686;SDS011;1353;51.386;7.028;2022-08-03T01:34:18;3.30;;;3.00;;
2686;SDS011;1353;51.386;7.028;2022-08-03T01:36:47;3.50;;;3.07;;
2686;SDS011;1353;51.386;7.028;2022-08-03T01:39:17;2.90;;;2.40;;
2686;SDS011;1353;51.386;7.028;2022-08-03T01:41:47;3.60;;;2.90;;
2686;SDS011;1353;51.386;7.028;2022-08-03T01:44:18;5.20;;;2.77;;
2686;SDS011;1353;51.386;7.028;2022-08-03T01:46:47;3.50;;;3.20;;
2686;SDS011;1353;51.386;7.028;2022-08-03T01:49:15;4.50;;;3.30;;
2686;SDS011;1353;51.386;7.028;2022-08-03T01:51:43;4.13;;;2.90;;
2686;SDS011;1353;51.386;7.028;2022-08-03T01:54:11;7.93;;;3.20;;
2686;SDS011;1353;51.386;7.028;2022-08-03T01:56:38;4.03;;;2.80;;
2686;SDS011;1353;51.386;7.028;2022-08-03T01:59:06;3.20;;;2.70;;
2686;SDS011;1353;51.386;7.028;2022-08-03T02:01:35;4.27;;;2.70;;
2686;SDS011;1353;51.386;7.028;2022-08-03T02:04:04;4.53;;;3.30;;
2686;SDS011;1353;51.386;7.028;2022-08-03T02:06:32;3.93;;;2.70;;
2686;SDS011;1353;51.386;7.028;2022-08-03T02:09:00;2.73;;;2.53;;
2686;SDS011;1353;51.386;7.028;2022-08-03T02:11:29;4.60;;;3.40;;
2686;SDS011;1353;51.386;7.028;2022-08-03T02:13:57;3.63;;;3.20;;
2686;SDS011;1353;51.386;7.028;2022-08-03T02:16:28;6.53;;;3.20;;
2686;SDS011;1353;51.386;7.028;2022-08-03T02:18:58;4.03;;;3.30;;
2686;SDS011;1353;51.386;7.028;2022-08-03T02:21:28;4.30;;;3.60;;
2686;SDS011;1353;51.386;7.028;2022-08-03T02:23:57;2.90;;;2.50;;
2686;SDS011;1353;51.386;7.028;2022-08-03T02:26:25;4.03;;;3.73;;
2686;SDS011;1353;51.386;7.028;2022-08-03T02:28:55;4.57;;;3.33;;
2686;SDS011;1353;51.386;7.028;2022-08-03T02:31:27;3.37;;;3.07;;
2686;SDS011;1353;51.386;7.028;2022-08-03T02:33:58;5.27;;;3.40;;
2686;SDS011;1353;51.386;7.028;2022-08-03T02:36:28;3.80;;;3.10;;
2686;SDS011;1353;51.386;7.028;2022-08-03T02:38:57;3.40;;;3.10;;
2686;SDS011;1353;51.386;7.028;2022-08-03T02:41:27;5.50;;;3.67;;
2686;SDS011;1353;51.386;7.028;2022-08-03T02:43:58;4.00;;;3.70;;
2686;SDS011;1353;51.386;7.028;2022-08-03T02:46:28;5.57;;;4.13;;
2686;SDS011;1353;51.386;7.028;2022-08-03T02:48:58;4.70;;;3.60;;
2686;SDS011;1353;51.386;7.028;2022-08-03T02:51:29;4.23;;;3.60;;
2686;SDS011;1353;51.386;7.028;2022-08-03T02:53:58;4.20;;;3.87;;
2686;SDS011;1353;51.386;7.028;2022-08-03T02:56:27;4.30;;;3.90;;
2686;SDS011;1353;51.386;7.028;2022-08-03T02:58:54;7.53;;;3.73;;
2686;SDS011;1353;51.386;7.028;2022-08-03T03:01:23;4.67;;;3.80;;
2686;SDS011;1353;51.386;7.028;2022-08-03T03:03:52;4.87;;;3.53;;
2686;SDS011;1353;51.386;7.028;2022-08-03T03:06:21;4.20;;;3.10;;
2686;SDS011;1353;51.386;7.028;2022-08-03T03:08:52;6.87;;;4.27;;
2686;SDS011;1353;51.386;7.028;2022-08-03T03:11:20;4.50;;;3.67;;
2686;SDS011;1353;51.386;7.028;2022-08-03T03:13:47;3.27;;;2.93;;
2686;SDS011;1353;51.386;7.028;2022-08-03T03:16:15;4.43;;;4.03;;
2686;SDS011;1353;51.386;7.028;2022-08-03T03:18:44;5.10;;;3.90;;
2686;SDS011;1353;51.386;7.028;2022-08-03T03:21:13;4.80;;;4.30;;
2686;SDS011;1353;51.386;7.028;2022-08-03T03:23:42;4.63;;;4.00;;
2686;SDS011;1353;51.386;7.028;2022-08-03T03:26:11;4.10;;;3.60;;
2686;SDS011;1353;51.386;7.028;2022-08-03T03:28:39;4.67;;;3.97;;
2686;SDS011;1353;51.386;7.028;2022-08-03T03:31:07;5.20;;;4.20;;
2686;SDS011;1353;51.386;7.028;2022-08-03T03:33:34;4.33;;;3.40;;
2686;SDS011;1353;51.386;7.028;2022-08-03T03:36:02;7.07;;;3.83;;
2686;SDS011;1353;51.386;7.028;2022-08-03T03:38:30;4.87;;;3.50;;
2686;SDS011;1353;51.386;7.028;2022-08-03T03:40:57;4.30;;;3.50;;
2686;SDS011;1353;51.386;7.028;2022-08-03T03:43:26;4.10;;;3.00;;
2686;SDS011;1353;51.386;7.028;2022-08-03T03:45:53;3.87;;;3.50;;
2686;SDS011;1353;51.386;7.028;2022-08-03T03:48:20;6.33;;;3.73;;
2686;SDS011;1353;51.386;7.028;2022-08-03T03:50:48;4.33;;;3.60;;
2686;SDS011;1353;51.386;7.028;2022-08-03T03:53:15;6.47;;;4.17;;
2686;SDS011;1353;51.386;7.028;2022-08-03T03:55:41;6.57;;;3.57;;
2686;SDS011;1353;51.386;7.028;2022-08-03T03:58:08;6.00;;;3.17;;
2686;SDS011;1353;51.386;7.028;2022-08-03T04:00:37;4.93;;;3.93;;
2686;SDS011;1353;51.386;7.028;2022-08-03T04:03:03;5.87;;;3.20;;
2686;SDS011;1353;51.386;7.028;2022-08-03T04:05:30;5.23;;;3.40;;
2686;SDS011;1353;51.386;7.028;2022-08-03T04:08:15;5.83;;;3.50;;
2686;SDS011;1353;51.386;7.028;2022-08-03T04:11:03;3.93;;;3.50;;
2686;SDS011;1353;51.386;7.028;2022-08-03T04:13:35;4.67;;;3.80;;
2686;SDS011;1353;51.386;7.028;2022-08-03T04:16:05;10.73;;;4.13;;
2686;SDS011;1353;51.386;7.028;2022-08-03T04:18:34;8.73;;;3.63;;
2686;SDS011;1353;51.386;7.028;2022-08-03T04:21:07;4.13;;;3.57;;
2686;SDS011;1353;51.386;7.028;2022-08-03T04:23:37;4.03;;;3.07;;
2686;SDS011;1353;51.386;7.028;2022-08-03T04:26:08;4.80;;;3.90;;
2686;SDS011;1353;51.386;7.028;2022-08-03T04:28:37;5.30;;;3.90;;
2686;SDS011;1353;51.386;7.028;2022-08-03T04:31:07;4.20;;;3.80;;
2686;SDS011;1353;51.386;7.028;2022-08-03T04:33:35;9.57;;;3.87;;
2686;SDS011;1353;51.386;7.028;2022-08-03T04:36:05;4.13;;;3.67;;
2686;SDS011;1353;51.386;7.028;2022-08-03T04:38:35;8.20;;;4.87;;
2686;SDS011;1353;51.386;7.028;2022-08-03T04:41:04;6.17;;;4.60;;
2686;SDS011;1353;51.386;7.028;2022-08-03T04:43:31;7.73;;;4.63;;
2686;SDS011;1353;51.386;7.028;2022-08-03T04:45:59;5.70;;;4.67;;
2686;SDS011;1353;51.386;7.028;2022-08-03T04:48:28;4.80;;;4.40;;
2686;SDS011;1353;51.386;7.028;2022-08-03T04:50:55;4.70;;;4.20;;
2686;SDS011;1353;51.386;7.028;2022-08-03T04:53:22;9.63;;;4.37;;
2686;SDS011;1353;51.386;7.028;2022-08-03T04:55:49;4.83;;;4.33;;
2686;SDS011;1353;51.386;7.028;2022-08-03T04:58:15;7.90;;;4.57;;
2686;SDS011;1353;51.386;7.028;2022-08-03T05:00:42;7.50;;;4.93;;
2686;SDS011;1353;51.386;7.028;2022-08-03T05:03:09;6.17;;;4.03;;
2686;SDS011;1353;51.386;7.028;2022-08-03T05:05:37;5.00;;;4.50;;
2686;SDS011;1353;51.386;7.028;2022-08-03T05:08:04;6.33;;;4.40;;
2686;SDS011;1353;51.386;7.028;2022-08-03T05:10:31;9.07;;;4.63;;
2686;SDS011;1353;51.386;7.028;2022-08-03T05:12:57;5.70;;;4.80;;
2686;SDS011;1353;51.386;7.028;2022-08-03T05:15:25;6.20;;;4.40;;
2686;SDS011;1353;51.386;7.028;2022-08-03T05:17:52;5.40;;;4.33;;
2686;SDS011;1353;51.386;7.028;2022-08-03T05:20:18;7.30;;;4.20;;
2686;SDS011;1353;51.386;7.028;2022-08-03T05:22:46;5.77;;;3.90;;
2686;SDS011;1353;51.386;7.028;2022-08-03T05:25:13;6.10;;;4.53;;
2686;SDS011;1353;51.386;7.028;2022-08-03T05:27:40;4.97;;;4.53;;
2686;SDS011;1353;51.386;7.028;2022-08-03T05:30:07;6.27;;;4.37;;
2686;SDS011;1353;51.386;7.028;2022-08-03T05:32:35;4.37;;;3.97;;
2686;SDS011;1353;51.386;7.028;2022-08-03T05:35:01;4.57;;;4.10;;
2686;SDS011;1353;51.386;7.028;2022-08-03T05:37:28;9.80;;;4.60;;
2686;SDS011;1353;51.386;7.028;2022-08-03T05:39:56;5.70;;;3.73;;
2686;SDS011;1353;51.386;7.028;2022-08-03T05:42:23;4.60;;;4.20;;
2686;SDS011;1353;51.386;7.028;2022-08-03T05:44:50;6.17;;;4.73;;
2686;SDS011;1353;51.386;7.028;2022-08-03T05:47:17;4.90;;;3.70;;
2686;SDS011;1353;51.386;7.028;2022-08-03T05:49:43;8.90;;;4.53;;
2686;SDS011;1353;51.386;7.028;2022-08-03T05:52:10;9.83;;;4.53;;
2686;SDS011;1353;51.386;7.028;2022-08-03T05:54:37;4.93;;;4.27;;
2686;SDS011;1353;51.386;7.028;2022-08-03T05:57:05;6.10;;;4.70;;
2686;SDS011;1353;51.386;7.028;2022-08-03T05:59:32;5.07;;;4.27;;
2686;SDS011;1353;51.386;7.028;2022-08-03T06:01:58;4.13;;;3.73;;
2686;SDS011;1353;51.386;7.028;2022-08-03T06:04:25;4.70;;;4.00;;
2686;SDS011;1353;51.386;7.028;2022-08-03T06:06:52;8.53;;;3.60;;
2686;SDS011;1353;51.386;7.028;2022-08-03T06:09:19;7.80;;;3.70;;
2686;SDS011;1353;51.386;7.028;2022-08-03T06:11:45;4.83;;;3.60;;
2686;SDS011;1353;51.386;7.028;2022-08-03T06:14:13;4.40;;;4.00;;
2686;SDS011;1353;51.386;7.028;2022-08-03T06:16:40;4.27;;;3.87;;
2686;SDS011;1353;51.386;7.028;2022-08-03T06:19:07;3.97;;;3.67;;
2686;SDS011;1353;51.386;7.028;2022-08-03T06:21:33;3.80;;;3.50;;
2686;SDS011;1353;51.386;7.028;2022-08-03T06:24:00;3.30;;;3.00;;
2686;SDS011;1353;51.386;7.028;2022-08-03T06:26:27;4.80;;;3.27;;
2686;SDS011;1353;51.386;7.028;2022-08-03T06:28:54;6.70;;;3.80;;
2686;SDS011;1353;51.386;7.028;2022-08-03T06:31:23;3.80;;;3.40;;
2686;SDS011;1353;51.386;7.028;2022-08-03T06:33:52;3.93;;;3.20;;
2686;SDS011;1353;51.386;7.028;2022-08-03T06:36:18;2.93;;;2.73;;
2686;SDS011;1353;51.386;7.028;2022-08-03T06:38:45;4.63;;;3.00;;
2686;SDS011;1353;51.386;7.028;2022-08-03T06:41:12;5.90;;;2.87;;
2686;SDS011;1353;51.386;7.028;2022-08-03T06:43:39;3.30;;;2.50;;
2686;SDS011;1353;51.386;7.028;2022-08-03T06:46:06;6.70;;;3.20;;
2686;SDS011;1353;51.386;7.028;2022-08-03T06:48:36;2.70;;;2.50;;
2686;SDS011;1353;51.386;7.028;2022-08-03T06:51:03;4.00;;;2.87;;
2686;SDS011;1353;51.386;7.028;2022-08-03T06:53:29;6.87;;;3.20;;
2686;SDS011;1353;51.386;7.028;2022-08-03T06:55:56;7.30;;;2.63;;
2686;SDS011;1353;51.386;7.028;2022-08-03T06:58:23;3.33;;;3.10;;
2686;SDS011;1353;51.386;7.028;2022-08-03T07:00:50;2.50;;;2.30;;
2686;SDS011;1353;51.386;7.028;2022-08-03T07:03:16;3.27;;;2.60;;
2686;SDS011;1353;51.386;7.028;2022-08-03T07:05:45;2.93;;;2.63;;
2686;SDS011;1353;51.386;7.028;2022-08-03T07:08:12;4.90;;;3.33;;
2686;SDS011;1353;51.386;7.028;2022-08-03T07:10:38;5.20;;;3.37;;
2686;SDS011;1353;51.386;7.028;2022-08-03T07:13:06;3.63;;;3.00;;
2686;SDS011;1353;51.386;7.028;2022-08-03T07:15:33;3.40;;;3.10;;
2686;SDS011;1353;51.386;7.028;2022-08-03T07:18:00;3.50;;;3.20;;
2686;SDS011;1353;51.386;7.028;2022-08-03T07:20:27;3.90;;;3.07;;
2686;SDS011;1353;51.386;7.028;2022-08-03T07:22:55;4.00;;;3.70;;
2686;SDS011;1353;51.386;7.028;2022-08-03T07:25:22;4.43;;;3.50;;
2686;SDS011;1353;51.386;7.028;2022-08-03T07:27:49;3.67;;;3.20;;
2686;SDS011;1353;51.386;7.028;2022-08-03T07:30:16;4.20;;;3.40;;
2686;SDS011;1353;51.386;7.028;2022-08-03T07:32:43;3.30;;;3.07;;
2686;SDS011;1353;51.386;7.028;2022-08-03T07:35:10;3.83;;;3.10;;
2686;SDS011;1353;51.386;7.028;2022-08-03T07:37:37;3.90;;;2.90;;
2686;SDS011;1353;51.386;7.028;2022-08-03T07:40:05;2.83;;;2.63;;
2686;SDS011;1353;51.386;7.028;2022-08-03T07:42:32;3.47;;;3.17;;
2686;SDS011;1353;51.386;7.028;2022-08-03T07:44:59;5.37;;;2.87;;
2686;SDS011;1353;51.386;7.028;2022-08-03T07:47:27;10.50;;;3.60;;
2686;SDS011;1353;51.386;7.028;2022-08-03T07:49:55;3.97;;;2.90;;
2686;SDS011;1353;51.386;7.028;2022-08-03T07:52:23;5.03;;;2.93;;
2686;SDS011;1353;51.386;7.028;2022-08-03T07:55:08;4.13;;;3.30;;
2686;SDS011;1353;51.386;7.028;2022-08-03T07:57:36;2.50;;;2.30;;
2686;SDS011;1353;51.386;7.028;2022-08-03T08:00:03;2.03;;;1.90;;
2686;SDS011;1353;51.386;7.028;2022-08-03T08:02:33;1.93;;;1.83;;
2686;SDS011;1353;51.386;7.028;2022-08-03T08:04:59;3.73;;;2.37;;
2686;SDS011;1353;51.386;7.028;2022-08-03T08:07:26;3.23;;;2.30;;
2686;SDS011;1353;51.386;7.028;2022-08-03T08:09:53;3.07;;;1.93;;
2686;SDS011;1353;51.386;7.028;2022-08-03T08:12:21;2.67;;;2.47;;
2686;SDS011;1353;51.386;7.028;2022-08-03T08:14:48;3.77;;;1.93;;
2686;SDS011;1353;51.386;7.028;2022-08-03T08:17:15;2.27;;;1.60;;
2686;SDS011;1353;51.386;7.028;2022-08-03T08:19:43;3.23;;;1.97;;
2686;SDS011;1353;51.386;7.028;2022-08-03T08:22:10;4.30;;;2.03;;
2686;SDS011;1353;51.386;7.028;2022-08-03T08:24:36;6.70;;;2.80;;
2686;SDS011;1353;51.386;7.028;2022-08-03T08:27:04;1.90;;;1.80;;
2686;SDS011;1353;51.386;7.028;2022-08-03T08:29:34;2.33;;;1.63;;
2686;SDS011;1353;51.386;7.028;2022-08-03T08:32:00;1.90;;;1.80;;
2686;SDS011;1353;51.386;7.028;2022-08-03T08:34:27;2.00;;;1.80;;
2686;SDS011;1353;51.386;7.028;2022-08-03T08:36:54;3.53;;;1.90;;
2686;SDS011;1353;51.386;7.028;2022-08-03T08:39:21;4.40;;;1.90;;
2686;SDS011;1353;51.386;7.028;2022-08-03T08:41:49;3.33;;;2.33;;
2686;SDS011;1353;51.386;7.028;2022-08-03T08:44:16;2.90;;;1.90;;
2686;SDS011;1353;51.386;7.028;2022-08-03T08:46:44;1.80;;;1.70;;
2686;SDS011;1353;51.386;7.028;2022-08-03T08:49:11;1.97;;;1.87;;
2686;SDS011;1353;51.386;7.028;2022-08-03T08:51:41;1.83;;;1.63;;
2686;SDS011;1353;51.386;7.028;2022-08-03T08:54:10;3.80;;;2.00;;
2686;SDS011;1353;51.386;7.028;2022-08-03T08:56:38;3.33;;;1.70;;
2686;SDS011;1353;51.386;7.028;2022-08-03T08:59:05;2.00;;;1.83;;
2686;SDS011;1353;51.386;7.028;2022-08-03T09:01:32;1.83;;;1.60;;
2686;SDS011;1353;51.386;7.028;2022-08-03T09:04:00;2.57;;;1.80;;
2686;SDS011;1353;51.386;7.028;2022-08-03T09:06:31;1.90;;;1.60;;
2686;SDS011;1353;51.386;7.028;2022-08-03T09:09:00;1.50;;;1.40;;
2686;SDS011;1353;51.386;7.028;2022-08-03T09:11:27;4.30;;;1.97;;
2686;SDS011;1353;51.386;7.028;2022-08-03T09:13:54;2.00;;;1.80;;
2686;SDS011;1353;51.386;7.028;2022-08-03T09:16:21;3.73;;;1.67;;
2686;SDS011;1353;51.386;7.028;2022-08-03T09:18:50;5.43;;;2.47;;
2686;SDS011;1353;51.386;7.028;2022-08-03T09:21:20;2.80;;;1.70;;
2686;SDS011;1353;51.386;7.028;2022-08-03T09:23:48;4.37;;;1.60;;
2686;SDS011;1353;51.386;7.028;2022-08-03T09:26:19;1.47;;;1.37;;
2686;SDS011;1353;51.386;7.028;2022-08-03T09:28:54;1.57;;;1.40;;
2686;SDS011;1353;51.386;7.028;2022-08-03T09:31:28;2.63;;;1.50;;
2686;SDS011;1353;51.386;7.028;2022-08-03T09:33:56;3.03;;;1.50;;
2686;SDS011;1353;51.386;7.028;2022-08-03T09:36:36;2.53;;;2.23;;
2686;SDS011;1353;51.386;7.028;2022-08-03T09:39:05;3.13;;;1.57;;
2686;SDS011;1353;51.386;7.028;2022-08-03T09:41:35;2.33;;;1.70;;
2686;SDS011;1353;51.386;7.028;2022-08-03T09:44:07;2.20;;;2.00;;
2686;SDS011;1353;51.386;7.028;2022-08-03T09:46:47;1.80;;;1.70;;
2686;SDS011;1353;51.386;7.028;2022-08-03T09:49:15;3.93;;;2.17;;
2686;SDS011;1353;51.386;7.028;2022-08-03T09:51:44;3.63;;;2.37;;
2686;SDS011;1353;51.386;7.028;2022-08-03T09:54:10;3.43;;;2.63;;
2686;SDS011;1353;51.386;7.028;2022-08-03T09:56:38;4.07;;;2.23;;
2686;SDS011;1353;51.386;7.028;2022-08-03T09:59:07;2.50;;;1.80;;
2686;SDS011;1353;51.386;7.028;2022-08-03T10:01:34;2.40;;;2.30;;
2686;SDS011;1353;51.386;7.028;2022-08-03T10:04:01;3.93;;;2.17;;
2686;SDS011;1353;51.386;7.028;2022-08-03T10:06:28;5.67;;;2.70;;
2686;SDS011;1353;51.386;7.028;2022-08-03T10:09:05;2.27;;;2.07;;
2686;SDS011;1353;51.386;7.028;2022-08-03T10:11:32;2.90;;;1.83;;
2686;SDS011;1353;51.386;7.028;2022-08-03T10:14:01;2.93;;;1.60;;
2686;SDS011;1353;51.386;7.028;2022-08-03T10:16:30;3.80;;;1.83;;
2686;SDS011;1353;51.386;7.028;2022-08-03T10:18:59;5.10;;;2.33;;
2686;SDS011;1353;51.386;7.028;2022-08-03T10:21:26;1.93;;;1.43;;
2686;SDS011;1353;51.386;7.028;2022-08-03T10:23:57;2.33;;;1.60;;
2686;SDS011;1353;51.386;7.028;2022-08-03T10:26:27;4.73;;;1.40;;
2686;SDS011;1353;51.386;7.028;2022-08-03T10:29:01;2.80;;;1.70;;
2686;SDS011;1353;51.386;7.028;2022-08-03T10:31:33;2.50;;;1.77;;
2686;SDS011;1353;51.386;7.028;2022-08-03T10:34:05;2.03;;;1.67;;
2686;SDS011;1353;51.386;7.028;2022-08-03T10:36:36;2.17;;;1.33;;
2686;SDS011;1353;51.386;7.028;2022-08-03T10:39:05;4.77;;;1.63;;
2686;SDS011;1353;51.386;7.028;2022-08-03T10:41:36;4.40;;;1.70;;
2686;SDS011;1353;51.386;7.028;2022-08-03T10:44:07;3.20;;;1.47;;
2686;SDS011;1353;51.386;7.028;2022-08-03T10:46:37;4.07;;;1.57;;
2686;SDS011;1353;51.386;7.028;2022-08-03T10:49:05;5.10;;;1.70;;
2686;SDS011;1353;51.386;7.028;2022-08-03T10:51:33;3.60;;;1.47;;
2686;SDS011;1353;51.386;7.028;2022-08-03T10:54:00;6.20;;;1.47;;
2686;SDS011;1353;51.386;7.028;2022-08-03T10:56:38;7.60;;;1.40;;
2686;SDS011;1353;51.386;7.028;2022-08-03T11:02:38;4.33;;;1.90;;
2686;SDS011;1353;51.386;7.028;2022-08-03T11:05:31;1.60;;;1.20;;
2686;SDS011;1353;51.386;7.028;2022-08-03T11:08:16;2.00;;;1.40;;
2686;SDS011;1353;51.386;7.028;2022-08-03T11:10:47;2.80;;;1.47;;
2686;SDS011;1353;51.386;7.028;2022-08-03T11:13:16;7.23;;;1.40;;
2686;SDS011;1353;51.386;7.028;2022-08-03T11:15:45;3.50;;;1.33;;
2686;SDS011;1353;51.386;7.028;2022-08-03T11:18:15;4.07;;;1.40;;
2686;SDS011;1353;51.386;7.028;2022-08-03T11:20:43;1.23;;;1.00;;
2686;SDS011;1353;51.386;7.028;2022-08-03T11:23:15;2.53;;;1.10;;
2686;SDS011;1353;51.386;7.028;2022-08-03T11:28:35;1.10;;;0.97;;
2686;SDS011;1353;51.386;7.028;2022-08-03T11:34:21;1.70;;;1.30;;
2686;SDS011;1353;51.386;7.028;2022-08-03T11:39:43;4.90;;;1.13;;
2686;SDS011;1353;51.386;7.028;2022-08-03T11:45:12;2.43;;;1.63;;
2686;SDS011;1353;51.386;7.028;2022-08-03T11:47:39;4.50;;;1.00;;
2686;SDS011;1353;51.386;7.028;2022-08-03T11:50:08;2.20;;;1.30;;
2686;SDS011;1353;51.386;7.028;2022-08-03T11:52:37;2.70;;;1.07;;
2686;SDS011;1353;51.386;7.028;2022-08-03T11:55:09;2.40;;;1.17;;
2686;SDS011;1353;51.386;7.028;2022-08-03T11:57:41;4.30;;;1.20;;
2686;SDS011;1353;51.386;7.028;2022-08-03T12:00:24;1.50;;;1.03;;
2686;SDS011;1353;51.386;7.028;2022-08-03T12:02:54;2.63;;;1.33;;
2686;SDS011;1353;51.386;7.028;2022-08-03T12:05:31;1.87;;;1.23;;
2686;SDS011;1353;51.386;7.028;2022-08-03T12:08:08;1.53;;;1.10;;
2686;SDS011;1353;51.386;7.028;2022-08-03T12:10:36;1.50;;;1.40;;
2686;SDS011;1353;51.386;7.028;2022-08-03T12:13:04;2.40;;;1.00;;
2686;SDS011;1353;51.386;7.028;2022-08-03T12:15:34;2.80;;;1.50;;
2686;SDS011;1353;51.386;7.028;2022-08-03T12:18:03;1.83;;;1.20;;
2686;SDS011;1353;51.386;7.028;2022-08-03T12:20:38;1.10;;;1.00;;
2686;SDS011;1353;51.386;7.028;2022-08-03T12:23:05;1.30;;;1.20;;
2686;SDS011;1353;51.386;7.028;2022-08-03T12:25:34;3.13;;;1.00;;
2686;SDS011;1353;51.386;7.028;2022-08-03T12:28:05;2.90;;;1.60;;
2686;SDS011;1353;51.386;7.028;2022-08-03T12:30:36;1.83;;;1.37;;
2686;SDS011;1353;51.386;7.028;2022-08-03T12:33:19;2.00;;;1.00;;
2686;SDS011;1353;51.386;7.028;2022-08-03T12:35:49;1.50;;;1.10;;
2686;SDS011;1353;51.386;7.028;2022-08-03T12:38:27;2.07;;;1.20;;
2686;SDS011;1353;51.386;7.028;2022-08-03T12:40:58;1.90;;;1.27;;
2686;SDS011;1353;51.386;7.028;2022-08-03T12:43:25;2.70;;;1.00;;
2686;SDS011;1353;51.386;7.028;2022-08-03T12:46:11;2.23;;;1.37;;
2686;SDS011;1353;51.386;7.028;2022-08-03T12:51:29;1.40;;;1.30;;
2686;SDS011;1353;51.386;7.028;2022-08-03T12:53:58;1.80;;;1.00;;
2686;SDS011;1353;51.386;7.028;2022-08-03T12:56:25;1.97;;;1.03;;
2686;SDS011;1353;51.386;7.028;2022-08-03T12:58:52;1.60;;;0.90;;
2686;SDS011;1353;51.386;7.028;2022-08-03T13:01:20;2.40;;;1.20;;
2686;SDS011;1353;51.386;7.028;2022-08-03T13:03:49;2.67;;;1.07;;
2686;SDS011;1353;51.386;7.028;2022-08-03T13:06:17;1.70;;;1.07;;
2686;SDS011;1353;51.386;7.028;2022-08-03T13:08:45;3.03;;;0.97;;
2686;SDS011;1353;51.386;7.028;2022-08-03T13:11:22;3.23;;;1.10;;
2686;SDS011;1353;51.386;7.028;2022-08-03T13:13:51;2.40;;;1.17;;
2686;SDS011;1353;51.386;7.028;2022-08-03T13:16:18;3.23;;;1.43;;
2686;SDS011;1353;51.386;7.028;2022-08-03T13:18:47;1.47;;;0.90;;
2686;SDS011;1353;51.386;7.028;2022-08-03T13:21:15;1.10;;;0.93;;
2686;SDS011;1353;51.386;7.028;2022-08-03T13:23:43;3.37;;;1.33;;
2686;SDS011;1353;51.386;7.028;2022-08-03T13:26:10;2.50;;;1.27;;
2686;SDS011;1353;51.386;7.028;2022-08-03T13:28:37;1.97;;;1.00;;
2686;SDS011;1353;51.386;7.028;2022-08-03T13:31:04;1.87;;;1.30;;
2686;SDS011;1353;51.386;7.028;2022-08-03T13:33:31;1.60;;;1.37;;
2686;SDS011;1353;51.386;7.028;2022-08-03T13:35:59;1.37;;;1.10;;
2686;SDS011;1353;51.386;7.028;2022-08-03T13:38:26;1.23;;;1.00;;
2686;SDS011;1353;51.386;7.028;2022-08-03T13:40:53;1.80;;;0.90;;
2686;SDS011;1353;51.386;7.028;2022-08-03T13:43:20;3.40;;;1.30;;
2686;SDS011;1353;51.386;7.028;2022-08-03T13:45:47;2.37;;;1.10;;
2686;SDS011;1353;51.386;7.028;2022-08-03T13:48:17;3.50;;;1.10;;
2686;SDS011;1353;51.386;7.028;2022-08-03T13:50:44;3.47;;;0.90;;
2686;SDS011;1353;51.386;7.028;2022-08-03T13:53:12;1.20;;;0.90;;
2686;SDS011;1353;51.386;7.028;2022-08-03T13:55:39;3.73;;;1.20;;
2686;SDS011;1353;51.386;7.028;2022-08-03T13:58:05;1.80;;;1.10;;
2686;SDS011;1353;51.386;7.028;2022-08-03T14:00:36;2.40;;;1.03;;
2686;SDS011;1353;51.386;7.028;2022-08-03T14:03:03;2.23;;;1.13;;
2686;SDS011;1353;51.386;7.028;2022-08-03T14:05:30;2.10;;;1.50;;
2686;SDS011;1353;51.386;7.028;2022-08-03T14:07:57;4.93;;;1.50;;
2686;SDS011;1353;51.386;7.028;2022-08-03T14:10:26;3.33;;;1.10;;
2686;SDS011;1353;51.386;7.028;2022-08-03T14:12:53;2.43;;;1.10;;
2686;SDS011;1353;51.386;7.028;2022-08-03T14:15:20;2.50;;;1.33;;
2686;SDS011;1353;51.386;7.028;2022-08-03T14:17:47;3.83;;;1.30;;
2686;SDS011;1353;51.386;7.028;2022-08-03T14:20:14;2.70;;;1.30;;
2686;SDS011;1353;51.386;7.028;2022-08-03T14:22:41;1.53;;;1.17;;
2686;SDS011;1353;51.386;7.028;2022-08-03T14:25:07;1.63;;;1.10;;
2686;SDS011;1353;51.386;7.028;2022-08-03T14:27:36;3.10;;;1.40;;
2686;SDS011;1353;51.386;7.028;2022-08-03T14:30:02;7.33;;;1.50;;
2686;SDS011;1353;51.386;7.028;2022-08-03T14:32:30;2.37;;;1.10;;
2686;SDS011;1353;51.386;7.028;2022-08-03T14:34:57;2.40;;;1.30;;
2686;SDS011;1353;51.386;7.028;2022-08-03T14:37:23;2.67;;;1.30;;
2686;SDS011;1353;51.386;7.028;2022-08-03T14:39:50;2.10;;;1.17;;
2686;SDS011;1353;51.386;7.028;2022-08-03T14:42:17;4.80;;;1.53;;
2686;SDS011;1353;51.386;7.028;2022-08-03T14:44:45;1.50;;;1.30;;
2686;SDS011;1353;51.386;7.028;2022-08-03T14:47:12;1.40;;;0.90;;
2686;SDS011;1353;51.386;7.028;2022-08-03T14:49:39;1.47;;;1.33;;
2686;SDS011;1353;51.386;7.028;2022-08-03T14:52:06;2.23;;;1.07;;
2686;SDS011;1353;51.386;7.028;2022-08-03T14:54:33;4.90;;;1.60;;
2686;SDS011;1353;51.386;7.028;2022-08-03T14:57:00;4.27;;;1.20;;
2686;SDS011;1353;51.386;7.028;2022-08-03T14:59:27;3.50;;;1.40;;
2686;SDS011;1353;51.386;7.028;2022-08-03T15:01:55;5.67;;;1.30;;
2686;SDS011;1353;51.386;7.028;2022-08-03T15:04:22;2.07;;;0.90;;
2686;SDS011;1353;51.386;7.028;2022-08-03T15:06:49;2.50;;;1.40;;
2686;SDS011;1353;51.386;7.028;2022-08-03T15:09:16;3.40;;;1.07;;
2686;SDS011;1353;51.386;7.028;2022-08-03T15:11:42;4.50;;;1.90;;
2686;SDS011;1353;51.386;7.028;2022-08-03T15:14:09;1.70;;;1.20;;
2686;SDS011;1353;51.386;7.028;2022-08-03T15:16:36;2.10;;;1.07;;
2686;SDS011;1353;51.386;7.028;2022-08-03T15:19:08;2.13;;;1.00;;
2686;SDS011;1353;51.386;7.028;2022-08-03T15:21:34;1.57;;;1.47;;
2686;SDS011;1353;51.386;7.028;2022-08-03T15:24:01;2.60;;;1.20;;
2686;SDS011;1353;51.386;7.028;2022-08-03T15:26:28;1.30;;;0.80;;
2686;SDS011;1353;51.386;7.028;2022-08-03T15:28:55;4.60;;;1.30;;
2686;SDS011;1353;51.386;7.028;2022-08-03T15:31:23;3.37;;;1.00;;
2686;SDS011;1353;51.386;7.028;2022-08-03T15:33:50;2.50;;;0.90;;
2686;SDS011;1353;51.386;7.028;2022-08-03T15:36:18;3.33;;;1.00;;
2686;SDS011;1353;51.386;7.028;2022-08-03T15:38:46;3.57;;;1.30;;
2686;SDS011;1353;51.386;7.028;2022-08-03T15:41:14;1.23;;;0.87;;
2686;SDS011;1353;51.386;7.028;2022-08-03T15:43:40;2.20;;;0.90;;